createdAt,value
2022-08-03T00:01:41.386Z,20.70
2022-08-03T00:04:44.900Z,20.68
2022-08-03T00:07:49.386Z,20.75
2022-08-03T00:10:54.847Z,20.76
2022-08-03T00:13:57.771Z,20.76
2022-08-03T00:17:01.420Z,20.67
2022-08-03T00:20:04.653Z,20.29
2022-08-03T00:23:33.110Z,20.26
2022-08-03T00:26:50.714Z,20.23
2022-08-03T00:29:59.499Z,20.05
2022-08-03T00:33:03.405Z,19.90
2022-08-03T00:36:08.083Z,19.97
2022-08-03T00:39:11.313Z,19.96
2022-08-03T00:42:15.269Z,20.02
2022-08-03T00:45:19.053Z,20.07
2022-08-03T00:48:33.370Z,20.10
2022-08-03T00:51:36.957Z,20.05
2022-08-03T00:54:40.620Z,19.89
2022-08-03T00:57:46.510Z,19.75
2022-08-03T01:00:50.419Z,19.54
2022-08-03T01:03:53.993Z,19.58
2022-08-03T01:07:11.150Z,19.36
2022-08-03T01:10:47.350Z,19.39
2022-08-03T01:14:18.336Z,19.30
2022-08-03T01:17:44.059Z,19.24
2022-08-03T01:21:04.302Z,19.23
2022-08-03T01:24:29.522Z,19.29
2022-08-03T01:28:18.703Z,19.27
2022-08-03T01:33:02.227Z,19.34
2022-08-03T01:35:35.456Z,19.38
2022-08-03T01:39:09.536Z,19.43
2022-08-03T01:42:16.231Z,19.49
2022-08-03T01:45:22.850Z,19.50
2022-08-03T01:48:28.185Z,19.44
2022-08-03T01:52:03.135Z,19.45
2022-08-03T01:54:59.116Z,19.43
2022-08-03T01:58:05.377Z,19.35
2022-08-03T02:02:28.360Z,19.27
2022-08-03T02:04:57.885Z,19.17
2022-08-03T02:08:16.642Z,19.08
2022-08-03T02:11:21.213Z,19.11
2022-08-03T02:14:26.978Z,19.06
2022-08-03T02:17:39.032Z,18.98
2022-08-03T02:20:44.769Z,18.93
2022-08-03T02:23:51.290Z,18.95
2022-08-03T02:26:56.777Z,19.05
2022-08-03T02:30:08.986Z,19.09
2022-08-03T02:33:36.564Z,19.12
2022-08-03T02:36:46.669Z,19.12
2022-08-03T02:39:53.457Z,19.06
2022-08-03T02:43:00.730Z,18.76
2022-08-03T02:46:05.653Z,18.41
2022-08-03T02:49:49.539Z,18.19
2022-08-03T02:53:18.372Z,18.01
2022-08-03T02:56:30.949Z,17.99
2022-08-03T02:59:45.340Z,18.05
2022-08-03T03:02:49.805Z,18.01
2022-08-03T03:06:05.759Z,18.01
2022-08-03T03:09:40.353Z,18.02
2022-08-03T03:12:47.024Z,17.91
2022-08-03T03:15:52.260Z,17.95
2022-08-03T03:18:55.566Z,17.95
2022-08-03T03:22:01.685Z,17.93
2022-08-03T03:25:06.692Z,17.87
2022-08-03T03:28:10.977Z,17.88
2022-08-03T03:31:33.776Z,17.86
2022-08-03T03:35:02.286Z,17.77
2022-08-03T03:38:30.976Z,17.83
2022-08-03T03:41:35.453Z,17.82
2022-08-03T03:44:38.830Z,17.87
2022-08-03T03:47:44.172Z,17.80
2022-08-03T03:50:49.974Z,17.77
2022-08-03T03:54:01.770Z,17.78
2022-08-03T03:57:26.335Z,17.74
2022-08-03T04:00:31.062Z,17.70
2022-08-03T04:03:38.533Z,17.80
2022-08-03T04:07:00.980Z,17.82
2022-08-03T04:10:47.279Z,17.83
2022-08-03T04:13:55.130Z,17.65
2022-08-03T04:17:19.657Z,17.50
2022-08-03T04:20:26.517Z,17.53
2022-08-03T04:23:34.453Z,17.60
2022-08-03T04:26:41.988Z,17.76
2022-08-03T04:29:49.476Z,17.95
2022-08-03T04:32:53.397Z,18.08
2022-08-03T04:36:01.514Z,18.09
2022-08-03T04:39:28.208Z,18.26
2022-08-03T04:42:34.166Z,18.29
2022-08-03T04:45:58.514Z,18.32
2022-08-03T04:49:22.437Z,18.25
2022-08-03T04:52:46.484Z,18.34
2022-08-03T04:56:29.569Z,18.41
2022-08-03T05:00:02.556Z,18.55
2022-08-03T05:03:38.159Z,18.78
2022-08-03T05:07:00.816Z,18.98
2022-08-03T05:10:36.851Z,19.10
2022-08-03T05:13:40.175Z,19.23
2022-08-03T05:16:43.423Z,19.18
2022-08-03T05:19:47.495Z,19.41
2022-08-03T05:22:51.395Z,19.48
2022-08-03T05:26:14.308Z,19.64
2022-08-03T05:29:37.368Z,19.89
2022-08-03T05:33:01.225Z,20.10
2022-08-03T05:36:06.665Z,20.36
2022-08-03T05:39:29.497Z,20.46
2022-08-03T05:42:33.480Z,20.80
2022-08-03T05:46:12.290Z,21.17
2022-08-03T05:49:37.267Z,21.34
2022-08-03T05:52:41.673Z,21.76
2022-08-03T05:56:02.730Z,22.12
2022-08-03T05:59:37.699Z,22.36
2022-08-03T06:02:41.338Z,22.72
2022-08-03T06:05:59.860Z,23.13
2022-08-03T06:09:13.314Z,23.47
2022-08-03T06:12:16.842Z,23.79
2022-08-03T06:15:20.722Z,24.13
2022-08-03T06:18:44.493Z,24.33
2022-08-03T06:22:02.011Z,24.58
2022-08-03T06:25:27.271Z,24.93
2022-08-03T06:28:51.678Z,25.25
2022-08-03T06:31:54.212Z,25.43
2022-08-03T06:34:57.077Z,25.62
2022-08-03T06:38:06.401Z,25.83
2022-08-03T06:41:09.924Z,26.00
2022-08-03T06:44:13.509Z,26.38
2022-08-03T06:47:38.026Z,26.39
2022-08-03T06:51:03.163Z,26.34
2022-08-03T06:54:12.418Z,26.56
2022-08-03T06:57:16.891Z,26.59
2022-08-03T07:00:39.607Z,26.87
2022-08-03T07:03:52.277Z,26.97
2022-08-03T07:39:31.833Z,28.44
2022-08-03T07:42:53.843Z,28.64
2022-08-03T07:45:57.224Z,28.64
2022-08-03T07:49:06.780Z,28.73
2022-08-03T07:52:50.245Z,28.63
2022-08-03T07:56:38.081Z,28.54
2022-08-03T07:59:56.340Z,28.72
2022-08-03T08:03:01.103Z,28.81
2022-08-03T08:06:05.398Z,28.96
2022-08-03T08:09:13.004Z,29.05
2022-08-03T08:12:39.457Z,29.08
2022-08-03T08:15:44.444Z,29.21
2022-08-03T08:18:50.401Z,29.24
2022-08-03T08:22:01.866Z,29.26
2022-08-03T08:25:06.935Z,29.41
2022-08-03T08:28:25.302Z,29.51
2022-08-03T08:31:34.550Z,29.41
2022-08-03T08:34:37.458Z,29.20
2022-08-03T08:37:41.404Z,29.04
2022-08-03T08:40:45.511Z,29.35
2022-08-03T08:43:59.834Z,29.60
2022-08-03T08:47:03.204Z,29.33
2022-08-03T08:50:14.831Z,29.55
2022-08-03T08:53:33.263Z,30.02
2022-08-03T08:56:38.966Z,30.16
2022-08-03T08:59:48.491Z,30.13
2022-08-03T09:03:00.881Z,30.09
2022-08-03T09:06:06.630Z,29.42
2022-08-03T09:09:09.882Z,30.04
2022-08-03T09:12:53.877Z,30.25
2022-08-03T09:16:11.098Z,30.17
2022-08-03T09:19:17.309Z,30.12
2022-08-03T09:22:22.785Z,30.52
2022-08-03T09:25:29.889Z,30.60
2022-08-03T09:28:58.082Z,30.85
2022-08-03T09:32:04.140Z,30.51
2022-08-03T09:35:09.476Z,30.29
2022-08-03T09:38:27.585Z,30.71
2022-08-03T09:41:31.158Z,30.70
2022-08-03T09:44:36.953Z,30.77
2022-08-03T09:47:45.000Z,30.97
2022-08-03T09:50:58.465Z,31.12
2022-08-03T09:54:34.756Z,31.18
2022-08-03T09:58:07.460Z,30.79
2022-08-03T10:01:23.638Z,31.19
2022-08-03T10:04:30.502Z,31.13
2022-08-03T10:07:46.649Z,30.95
2022-08-03T10:10:55.418Z,31.14
2022-08-03T10:14:01.399Z,31.44
2022-08-03T10:17:06.475Z,31.23
2022-08-03T10:20:20.922Z,30.93
2022-08-03T10:23:26.224Z,30.07
2022-08-03T10:26:32.742Z,29.94
2022-08-03T10:29:43.087Z,29.99
2022-08-03T10:33:51.982Z,30.11
2022-08-03T10:36:55.670Z,30.65
2022-08-03T10:40:00.816Z,31.20
2022-08-03T10:43:10.065Z,31.25
2022-08-03T10:46:21.503Z,31.35
2022-08-03T10:49:42.420Z,31.65
2022-08-03T10:53:09.032Z,31.49
2022-08-03T10:56:52.493Z,31.29
2022-08-03T11:00:02.914Z,31.29
2022-08-03T11:03:21.542Z,31.37
2022-08-03T11:06:26.507Z,31.82
2022-08-03T11:09:48.658Z,31.68
2022-08-03T11:12:51.834Z,30.61
2022-08-03T11:16:00.530Z,30.28
2022-08-03T11:19:10.790Z,30.86
2022-08-03T11:22:16.234Z,31.24
2022-08-03T11:25:53.879Z,31.62
2022-08-03T11:28:48.410Z,31.70
2022-08-03T11:31:51.943Z,31.99
2022-08-03T11:35:16.992Z,32.02
2022-08-03T11:38:24.682Z,32.16
2022-08-03T11:41:43.311Z,32.22
2022-08-03T11:44:59.838Z,32.31
2022-08-03T11:48:23.502Z,32.32
2022-08-03T11:51:32.035Z,32.31
2022-08-03T11:54:36.448Z,32.82
2022-08-03T11:59:19.011Z,33.05
2022-08-03T12:01:06.406Z,32.82
2022-08-03T12:04:16.572Z,32.43
2022-08-03T12:08:03.809Z,32.39
2022-08-03T12:10:52.201Z,32.19
2022-08-03T12:14:44.816Z,31.88
2022-08-03T12:17:18.824Z,31.77
2022-08-03T12:20:34.659Z,31.81
2022-08-03T12:23:39.421Z,31.93
2022-08-03T12:26:58.141Z,32.02
2022-08-03T12:30:05.652Z,31.97
2022-08-03T12:33:54.553Z,32.12
2022-08-03T12:36:58.875Z,32.14
2022-08-03T12:40:10.395Z,32.27
2022-08-03T12:43:14.623Z,32.47
2022-08-03T12:46:19.258Z,32.15
2022-08-03T12:49:22.520Z,32.72
2022-08-03T12:52:29.483Z,32.92
2022-08-03T12:56:01.493Z,32.98
2022-08-03T12:59:32.494Z,33.06
2022-08-03T13:02:40.068Z,32.95
2022-08-03T13:05:49.612Z,32.98
2022-08-03T13:09:08.553Z,32.79
2022-08-03T13:12:14.292Z,32.77
2022-08-03T13:15:17.712Z,33.13
2022-08-03T13:18:20.659Z,33.28
2022-08-03T13:21:53.524Z,33.36
2022-08-03T13:25:28.647Z,33.49
2022-08-03T13:28:33.662Z,33.40
2022-08-03T13:31:37.081Z,33.08
2022-08-03T13:34:53.956Z,32.86
2022-08-03T13:37:56.974Z,33.07
2022-08-03T13:41:20.171Z,33.17
2022-08-03T13:44:39.140Z,33.09
2022-08-03T13:48:02.257Z,32.67
2022-08-03T13:51:25.146Z,32.59
2022-08-03T13:54:28.498Z,32.66
2022-08-03T13:58:03.970Z,32.89
2022-08-03T14:00:59.798Z,32.83
2022-08-03T14:04:03.568Z,32.79
2022-08-03T14:07:09.261Z,32.71
2022-08-03T14:10:15.522Z,32.88
2022-08-03T14:13:18.785Z,32.94
2022-08-03T14:16:23.014Z,33.09
2022-08-03T14:19:26.005Z,32.87
2022-08-03T14:22:35.892Z,33.01
2022-08-03T14:25:44.533Z,32.91
2022-08-03T14:28:56.034Z,33.01
2022-08-03T14:32:12.052Z,33.06
2022-08-03T14:35:17.070Z,33.23
2022-08-03T14:38:20.842Z,33.20
2022-08-03T14:41:25.181Z,33.10
2022-08-03T14:44:28.161Z,32.71
2022-08-03T14:50:30.652Z,32.60
2022-08-03T14:51:08.870Z,32.17
2022-08-03T14:54:12.146Z,32.26
2022-08-03T14:57:15.079Z,32.38
2022-08-03T15:00:20.019Z,32.25
2022-08-03T15:03:46.970Z,32.17
2022-08-03T15:06:51.257Z,32.26
2022-08-03T15:09:54.746Z,32.31
2022-08-03T15:13:38.495Z,32.22
2022-08-03T15:16:41.484Z,32.26
2022-08-03T15:20:00.773Z,32.73
2022-08-03T15:23:08.554Z,32.77
2022-08-03T15:26:31.647Z,32.47
2022-08-03T15:30:11.103Z,32.49
2022-08-03T15:33:18.868Z,32.52
2022-08-03T15:36:42.191Z,32.38
2022-08-03T15:40:35.620Z,32.45
2022-08-03T15:43:47.915Z,32.31
2022-08-03T17:20:50.706Z,31.06
2022-08-03T17:24:19.640Z,31.00
2022-08-03T17:28:50.616Z,30.87
2022-08-03T17:31:22.998Z,30.76
2022-08-03T17:34:34.845Z,30.62
2022-08-03T17:37:57.869Z,30.52
2022-08-03T17:41:01.651Z,30.42
2022-08-03T17:44:30.169Z,30.32
2022-08-03T17:47:42.881Z,30.24
2022-08-03T17:50:52.158Z,30.10
2022-08-03T17:54:18.619Z,29.94
2022-08-03T17:58:03.084Z,29.81
2022-08-03T18:01:59.801Z,29.65
2022-08-03T18:05:15.971Z,29.51
2022-08-03T18:08:19.779Z,29.39
2022-08-03T18:11:35.315Z,29.29
2022-08-03T18:14:59.193Z,29.13
2022-08-03T18:18:10.988Z,29.00
2022-08-03T18:21:17.127Z,28.88
2022-08-03T18:24:21.159Z,28.78
2022-08-03T18:27:45.545Z,28.65
2022-08-03T18:30:53.072Z,28.56
2022-08-03T18:34:19.089Z,28.43
2022-08-03T18:37:25.583Z,28.21
2022-08-03T18:40:29.456Z,28.03
2022-08-03T18:44:06.481Z,27.96
2022-08-03T18:47:51.936Z,27.84
2022-08-03T18:51:09.836Z,27.88
2022-08-03T18:54:45.978Z,27.86
2022-08-03T18:58:19.166Z,27.81
2022-08-03T19:02:00.321Z,27.69
2022-08-03T19:05:08.735Z,27.59
2022-08-03T19:08:25.973Z,27.47
2022-08-03T19:12:14.333Z,27.38
2022-08-03T19:15:12.912Z,27.29
2022-08-03T19:18:25.779Z,27.22
2022-08-03T19:21:52.331Z,27.14
2022-08-03T19:24:56.596Z,27.03
2022-08-03T19:28:03.821Z,26.93
2022-08-03T19:31:24.095Z,26.86
2022-08-03T19:34:37.585Z,26.73
2022-08-03T19:37:46.883Z,26.62
2022-08-03T19:40:53.604Z,26.56
2022-08-03T19:44:04.490Z,26.42
2022-08-03T19:47:22.454Z,26.35
2022-08-03T19:50:26.844Z,26.25
2022-08-03T19:53:40.184Z,25.91
2022-08-03T19:57:03.472Z,25.74
2022-08-03T20:00:13.941Z,25.63
2022-08-03T20:03:21.817Z,25.69
2022-08-03T20:06:28.391Z,25.66
2022-08-03T20:09:36.134Z,25.72
2022-08-03T20:12:50.063Z,25.85
2022-08-03T20:16:16.006Z,25.77
2022-08-03T20:19:19.922Z,25.74
2022-08-03T20:22:30.981Z,25.77
2022-08-03T20:25:57.328Z,25.85
2022-08-03T20:29:13.657Z,25.84
2022-08-03T20:32:35.721Z,25.80
2022-08-03T20:35:41.951Z,25.64
2022-08-03T20:42:37.539Z,25.70
2022-08-03T20:45:59.761Z,25.63
2022-08-03T20:49:11.829Z,25.17
2022-08-03T20:52:43.812Z,25.00
2022-08-03T20:56:08.877Z,24.72
2022-08-03T20:59:14.961Z,24.47
2022-08-03T21:02:40.174Z,24.40
2022-08-03T21:05:51.835Z,24.37
2022-08-03T21:09:04.281Z,24.29
2022-08-03T21:12:36.575Z,24.20
2022-08-03T21:16:04.828Z,24.12
2022-08-03T21:19:17.287Z,24.08
2022-08-03T21:22:23.085Z,24.07
2022-08-03T21:25:31.366Z,24.00
2022-08-03T21:28:35.385Z,23.89
2022-08-03T21:31:40.330Z,23.74
2022-08-03T21:34:45.860Z,23.62
2022-08-03T21:38:09.666Z,23.63
2022-08-03T21:41:13.631Z,23.63
2022-08-03T21:44:56.250Z,23.60
2022-08-03T21:47:59.793Z,23.64
2022-08-03T21:51:05.163Z,23.64
2022-08-03T21:54:09.913Z,23.67
2022-08-03T21:57:23.278Z,23.66
2022-08-03T22:00:27.078Z,23.61
2022-08-03T22:03:33.207Z,23.57
2022-08-03T22:07:17.169Z,23.48
2022-08-03T22:10:21.237Z,23.38
2022-08-03T22:13:43.575Z,23.29
2022-08-03T22:16:49.238Z,23.29
2022-08-03T22:19:53.967Z,23.24
2022-08-03T22:23:01.445Z,23.20
2022-08-03T22:26:04.764Z,23.10
2022-08-03T22:29:08.623Z,23.08
2022-08-03T22:32:11.571Z,23.15
2022-08-03T22:35:20.429Z,23.13
2022-08-03T22:38:26.304Z,23.06
2022-08-03T22:41:29.953Z,23.10
2022-08-03T22:44:35.391Z,23.06
2022-08-03T22:47:41.195Z,23.03
2022-08-03T22:50:46.192Z,22.97
2022-08-03T22:53:49.995Z,22.96
2022-08-03T22:56:55.007Z,22.91
2022-08-03T22:59:58.812Z,22.83
2022-08-03T23:03:02.714Z,22.74
2022-08-03T23:06:06.895Z,22.76
2022-08-03T23:09:13.506Z,22.70
2022-08-03T23:12:22.849Z,22.66
2022-08-03T23:15:30.301Z,22.55
2022-08-03T23:18:39.850Z,22.54
2022-08-03T23:21:53.720Z,22.52
2022-08-03T23:25:07.031Z,22.49
2022-08-03T23:28:14.150Z,22.45
2022-08-03T23:31:19.003Z,22.37
2022-08-03T23:34:41.988Z,22.32
2022-08-03T23:38:12.153Z,22.28
2022-08-03T23:41:09.933Z,22.22
2022-08-03T23:44:14.342Z,22.23
2022-08-03T23:47:19.530Z,22.24
2022-08-03T23:50:26.277Z,22.16
2022-08-03T23:54:18.707Z,22.14
